sensor_id;sensor_type;location;lat;lon;timestamp;pressure;altitude;pressure_sealevel;temperature;humidity
80624;BME280;70269;44.768;9.600;2024-01-30T00:01:24;99304.38;;;-0.51;82.21
80624;BME280;70269;44.768;9.600;2024-01-30T00:03:50;99305.03;;;-0.61;82.44
80624;BME280;70269;44.768;9.600;2024-01-30T00:06:18;99294.16;;;-0.71;82.70
80624;BME280;70269;44.768;9.600;2024-01-30T00:08:45;99292.94;;;-0.65;82.49
80624;BME280;70269;44.768;9.600;2024-01-30T00:11:14;99289.69;;;-0.56;82.17
80624;BME280;70269;44.768;9.600;2024-01-30T00:13:40;99294.75;;;-0.39;81.09
80624;BME280;70269;44.768;9.600;2024-01-30T00:16:06;99292.47;;;-0.31;80.84
80624;BME280;70269;44.768;9.600;2024-01-30T00:18:32;99293.13;;;-0.42;80.80
80624;BME280;70269;44.768;9.600;2024-01-30T00:20:57;99305.09;;;-0.49;81.21
80624;BME280;70269;44.768;9.600;2024-01-30T00:23:23;99298.25;;;-0.38;81.18
80624;BME280;70269;44.768;9.600;2024-01-30T00:25:48;99303.97;;;-0.45;81.57
80624;BME280;70269;44.768;9.600;2024-01-30T00:28:14;99293.63;;;-0.49;81.44
80624;BME280;70269;44.768;9.600;2024-01-30T00:30:39;99287.88;;;-0.29;80.59
80624;BME280;70269;44.768;9.600;2024-01-30T00:33:05;99290.09;;;-0.09;79.84
80624;BME280;70269;44.768;9.600;2024-01-30T00:35:31;99293.09;;;-0.27;80.19
80624;BME280;70269;44.768;9.600;2024-01-30T00:37:56;99299.00;;;-0.36;80.90
80624;BME280;70269;44.768;9.600;2024-01-30T00:40:22;99292.50;;;-0.45;80.48
80624;BME280;70269;44.768;9.600;2024-01-30T00:42:48;99294.03;;;-0.55;80.70
80624;BME280;70269;44.768;9.600;2024-01-30T00:45:14;99295.47;;;-0.50;80.91
80624;BME280;70269;44.768;9.600;2024-01-30T00:47:40;99293.22;;;-0.43;80.96
80624;BME280;70269;44.768;9.600;2024-01-30T00:50:06;99297.59;;;-0.42;81.17
80624;BME280;70269;44.768;9.600;2024-01-30T00:52:32;99294.09;;;-0.43;80.78
80624;BME280;70269;44.768;9.600;2024-01-30T00:54:59;99295.13;;;-0.31;80.04
80624;BME280;70269;44.768;9.600;2024-01-30T00:57:24;99290.53;;;-0.29;79.83
80624;BME280;70269;44.768;9.600;2024-01-30T00:59:50;99300.75;;;-0.23;79.65
80624;BME280;70269;44.768;9.600;2024-01-30T01:02:15;99298.59;;;-0.30;79.69
80624;BME280;70269;44.768;9.600;2024-01-30T01:04:43;99296.75;;;-0.43;80.55
80624;BME280;70269;44.768;9.600;2024-01-30T01:07:10;99297.41;;;-0.39;79.42
80624;BME280;70269;44.768;9.600;2024-01-30T01:09:35;99301.59;;;-0.49;79.84
80624;BME280;70269;44.768;9.600;2024-01-30T01:12:01;99295.47;;;-0.50;80.26
80624;BME280;70269;44.768;9.600;2024-01-30T01:14:27;99298.59;;;-0.57;80.54
80624;BME280;70269;44.768;9.600;2024-01-30T01:16:53;99295.19;;;-0.59;80.74
80624;BME280;70269;44.768;9.600;2024-01-30T01:19:18;99294.63;;;-0.64;80.82
80624;BME280;70269;44.768;9.600;2024-01-30T01:21:44;99294.09;;;-0.69;80.96
80624;BME280;70269;44.768;9.600;2024-01-30T01:24:09;99290.03;;;-0.75;81.18
80624;BME280;70269;44.768;9.600;2024-01-30T01:26:35;99291.44;;;-0.84;82.02
80624;BME280;70269;44.768;9.600;2024-01-30T01:29:00;99291.06;;;-0.77;81.66
80624;BME280;70269;44.768;9.600;2024-01-30T01:31:26;99286.78;;;-0.80;81.70
80624;BME280;70269;44.768;9.600;2024-01-30T01:33:54;99279.28;;;-0.73;81.87
80624;BME280;70269;44.768;9.600;2024-01-30T01:36:20;99284.41;;;-0.70;82.03
80624;BME280;70269;44.768;9.600;2024-01-30T01:38:46;99289.16;;;-0.75;81.33
80624;BME280;70269;44.768;9.600;2024-01-30T01:41:12;99282.63;;;-0.70;81.77
80624;BME280;70269;44.768;9.600;2024-01-30T01:43:37;99283.66;;;-0.72;81.96
80624;BME280;70269;44.768;9.600;2024-01-30T01:46:05;99281.47;;;-0.80;82.23
80624;BME280;70269;44.768;9.600;2024-01-30T01:48:32;99272.69;;;-0.80;81.99
80624;BME280;70269;44.768;9.600;2024-01-30T01:50:58;99281.69;;;-0.83;81.38
80624;BME280;70269;44.768;9.600;2024-01-30T01:53:24;99270.81;;;-0.93;82.15
80624;BME280;70269;44.768;9.600;2024-01-30T01:55:50;99272.88;;;-0.84;81.48
80624;BME280;70269;44.768;9.600;2024-01-30T01:58:19;99272.41;;;-0.76;80.63
80624;BME280;70269;44.768;9.600;2024-01-30T02:00:45;99276.06;;;-0.78;81.04
80624;BME280;70269;44.768;9.600;2024-01-30T02:03:13;99273.72;;;-0.69;80.53
80624;BME280;70269;44.768;9.600;2024-01-30T02:05:39;99278.56;;;-0.75;81.15
80624;BME280;70269;44.768;9.600;2024-01-30T02:08:06;99278.66;;;-0.77;81.14
80624;BME280;70269;44.768;9.600;2024-01-30T02:10:33;99276.22;;;-0.53;80.09
80624;BME280;70269;44.768;9.600;2024-01-30T02:12:59;99275.38;;;-0.68;80.45
80624;BME280;70269;44.768;9.600;2024-01-30T02:15:25;99277.88;;;-0.79;80.64
80624;BME280;70269;44.768;9.600;2024-01-30T02:17:50;99275.44;;;-0.82;80.70
80624;BME280;70269;44.768;9.600;2024-01-30T02:20:16;99271.47;;;-0.89;80.51
80624;BME280;70269;44.768;9.600;2024-01-30T02:22:42;99273.44;;;-0.78;80.46
80624;BME280;70269;44.768;9.600;2024-01-30T02:25:08;99268.91;;;-0.91;80.70
80624;BME280;70269;44.768;9.600;2024-01-30T02:27:34;99265.88;;;-0.99;81.25
80624;BME280;70269;44.768;9.600;2024-01-30T02:29:59;99275.66;;;-0.99;81.69
80624;BME280;70269;44.768;9.600;2024-01-30T02:32:25;99274.34;;;-1.06;82.06
80624;BME280;70269;44.768;9.600;2024-01-30T02:34:50;99272.34;;;-1.17;82.33
80624;BME280;70269;44.768;9.600;2024-01-30T02:37:16;99270.91;;;-1.08;82.28
80624;BME280;70269;44.768;9.600;2024-01-30T02:39:42;99271.78;;;-1.08;82.09
80624;BME280;70269;44.768;9.600;2024-01-30T02:42:07;99269.41;;;-1.12;82.50
80624;BME280;70269;44.768;9.600;2024-01-30T02:44:33;99275.75;;;-1.15;82.19
80624;BME280;70269;44.768;9.600;2024-01-30T02:46:58;99279.00;;;-1.24;82.68
80624;BME280;70269;44.768;9.600;2024-01-30T02:49:24;99278.31;;;-1.28;83.04
80624;BME280;70269;44.768;9.600;2024-01-30T02:51:50;99284.56;;;-1.29;83.32
80624;BME280;70269;44.768;9.600;2024-01-30T02:54:16;99278.88;;;-1.23;82.98
80624;BME280;70269;44.768;9.600;2024-01-30T02:56:41;99271.03;;;-1.24;82.85
80624;BME280;70269;44.768;9.600;2024-01-30T02:59:07;99272.47;;;-1.18;82.45
80624;BME280;70269;44.768;9.600;2024-01-30T03:01:32;99262.09;;;-1.23;82.40
80624;BME280;70269;44.768;9.600;2024-01-30T03:03:58;99265.53;;;-1.21;82.19
80624;BME280;70269;44.768;9.600;2024-01-30T03:06:24;99275.50;;;-1.25;82.62
80624;BME280;70269;44.768;9.600;2024-01-30T03:08:49;99277.56;;;-1.30;82.45
80624;BME280;70269;44.768;9.600;2024-01-30T03:11:15;99279.47;;;-1.32;81.90
80624;BME280;70269;44.768;9.600;2024-01-30T03:13:40;99284.94;;;-1.35;82.37
80624;BME280;70269;44.768;9.600;2024-01-30T03:16:06;99283.03;;;-1.47;82.95
80624;BME280;70269;44.768;9.600;2024-01-30T03:18:33;99275.19;;;-1.48;83.17
80624;BME280;70269;44.768;9.600;2024-01-30T03:20:59;99278.22;;;-1.40;82.48
80624;BME280;70269;44.768;9.600;2024-01-30T03:23:24;99276.41;;;-1.40;82.29
80624;BME280;70269;44.768;9.600;2024-01-30T03:25:50;99270.63;;;-1.46;82.84
80624;BME280;70269;44.768;9.600;2024-01-30T03:28:15;99275.19;;;-1.48;82.81
80624;BME280;70269;44.768;9.600;2024-01-30T03:30:41;99280.69;;;-1.51;83.66
80624;BME280;70269;44.768;9.600;2024-01-30T03:33:07;99278.03;;;-1.51;83.40
80624;BME280;70269;44.768;9.600;2024-01-30T03:35:32;99265.91;;;-1.55;83.64
80624;BME280;70269;44.768;9.600;2024-01-30T03:37:58;99269.91;;;-1.48;82.84
80624;BME280;70269;44.768;9.600;2024-01-30T03:40:23;99268.56;;;-1.55;83.23
80624;BME280;70269;44.768;9.600;2024-01-30T03:42:49;99262.88;;;-1.64;84.08
80624;BME280;70269;44.768;9.600;2024-01-30T03:45:14;99273.00;;;-1.70;84.20
80624;BME280;70269;44.768;9.600;2024-01-30T03:47:43;99267.31;;;-1.64;83.90
80624;BME280;70269;44.768;9.600;2024-01-30T03:50:09;99275.25;;;-1.64;83.76
80624;BME280;70269;44.768;9.600;2024-01-30T03:52:34;99270.84;;;-1.49;83.36
80624;BME280;70269;44.768;9.600;2024-01-30T03:55:00;99274.44;;;-1.50;82.73
80624;BME280;70269;44.768;9.600;2024-01-30T03:57:26;99269.50;;;-1.56;83.36
80624;BME280;70269;44.768;9.600;2024-01-30T03:59:51;99277.47;;;-1.56;83.47
80624;BME280;70269;44.768;9.600;2024-01-30T04:02:17;99280.28;;;-1.59;83.54
80624;BME280;70269;44.768;9.600;2024-01-30T04:04:43;99274.97;;;-1.59;83.16
80624;BME280;70269;44.768;9.600;2024-01-30T04:07:08;99272.69;;;-1.66;83.61
80624;BME280;70269;44.768;9.600;2024-01-30T04:09:34;99274.78;;;-1.71;83.63
80624;BME280;70269;44.768;9.600;2024-01-30T04:12:02;99273.00;;;-1.70;83.73
80624;BME280;70269;44.768;9.600;2024-01-30T04:14:29;99269.31;;;-1.53;82.81
80624;BME280;70269;44.768;9.600;2024-01-30T04:16:54;99278.59;;;-1.60;82.94
80624;BME280;70269;44.768;9.600;2024-01-30T04:19:20;99269.69;;;-1.59;82.84
80624;BME280;70269;44.768;9.600;2024-01-30T04:21:45;99264.22;;;-1.56;83.17
80624;BME280;70269;44.768;9.600;2024-01-30T04:24:11;99262.97;;;-1.51;83.13
80624;BME280;70269;44.768;9.600;2024-01-30T04:26:36;99265.91;;;-1.55;83.02
80624;BME280;70269;44.768;9.600;2024-01-30T04:29:02;99258.91;;;-1.56;82.77
80624;BME280;70269;44.768;9.600;2024-01-30T04:31:28;99260.50;;;-1.40;82.20
80624;BME280;70269;44.768;9.600;2024-01-30T04:33:53;99259.56;;;-1.39;82.54
80624;BME280;70269;44.768;9.600;2024-01-30T04:36:19;99267.81;;;-1.43;82.97
80624;BME280;70269;44.768;9.600;2024-01-30T04:38:44;99268.28;;;-1.51;82.94
80624;BME280;70269;44.768;9.600;2024-01-30T04:41:10;99265.06;;;-1.56;82.74
80624;BME280;70269;44.768;9.600;2024-01-30T04:43:35;99261.72;;;-1.59;82.59
80624;BME280;70269;44.768;9.600;2024-01-30T04:46:01;99266.28;;;-1.47;82.41
80624;BME280;70269;44.768;9.600;2024-01-30T04:48:27;99259.38;;;-1.50;82.93
80624;BME280;70269;44.768;9.600;2024-01-30T04:50:52;99257.56;;;-1.35;81.91
80624;BME280;70269;44.768;9.600;2024-01-30T04:53:18;99267.69;;;-1.42;82.29
80624;BME280;70269;44.768;9.600;2024-01-30T04:55:44;99254.81;;;-1.48;82.46
80624;BME280;70269;44.768;9.600;2024-01-30T04:58:10;99259.56;;;-1.53;82.44
80624;BME280;70269;44.768;9.600;2024-01-30T05:00:35;99263.53;;;-1.60;82.27
80624;BME280;70269;44.768;9.600;2024-01-30T05:03:01;99260.63;;;-1.55;82.50
80624;BME280;70269;44.768;9.600;2024-01-30T05:05:26;99257.75;;;-1.52;82.36
80624;BME280;70269;44.768;9.600;2024-01-30T05:07:52;99259.38;;;-1.50;82.04
80624;BME280;70269;44.768;9.600;2024-01-30T05:10:17;99260.78;;;-1.58;82.34
80624;BME280;70269;44.768;9.600;2024-01-30T05:12:43;99261.84;;;-1.61;82.20
80624;BME280;70269;44.768;9.600;2024-01-30T05:15:09;99264.59;;;-1.63;82.27
80624;BME280;70269;44.768;9.600;2024-01-30T05:17:35;99267.78;;;-1.57;81.79
80624;BME280;70269;44.768;9.600;2024-01-30T05:20:00;99266.66;;;-1.53;81.75
80624;BME280;70269;44.768;9.600;2024-01-30T05:22:26;99269.31;;;-1.53;81.75
80624;BME280;70269;44.768;9.600;2024-01-30T05:24:51;99262.78;;;-1.48;81.57
80624;BME280;70269;44.768;9.600;2024-01-30T05:27:17;99264.00;;;-1.53;81.72
80624;BME280;70269;44.768;9.600;2024-01-30T05:29:42;99266.50;;;-1.36;81.02
80624;BME280;70269;44.768;9.600;2024-01-30T05:32:08;99269.16;;;-1.36;80.83
80624;BME280;70269;44.768;9.600;2024-01-30T05:34:35;99275.09;;;-1.33;80.63
80624;BME280;70269;44.768;9.600;2024-01-30T05:37:01;99278.50;;;-1.45;81.91
80624;BME280;70269;44.768;9.600;2024-01-30T05:39:26;99264.31;;;-1.44;81.49
80624;BME280;70269;44.768;9.600;2024-01-30T05:41:52;99273.00;;;-1.42;81.52
80624;BME280;70269;44.768;9.600;2024-01-30T05:44:18;99262.69;;;-1.46;81.81
80624;BME280;70269;44.768;9.600;2024-01-30T05:46:43;99266.66;;;-1.39;81.25
80624;BME280;70269;44.768;9.600;2024-01-30T05:49:09;99269.63;;;-1.30;80.42
80624;BME280;70269;44.768;9.600;2024-01-30T05:51:34;99269.03;;;-1.35;80.67
80624;BME280;70269;44.768;9.600;2024-01-30T05:54:00;99268.94;;;-1.33;80.50
80624;BME280;70269;44.768;9.600;2024-01-30T05:56:29;99274.81;;;-1.42;80.79
80624;BME280;70269;44.768;9.600;2024-01-30T05:58:54;99265.34;;;-1.46;81.34
80624;BME280;70269;44.768;9.600;2024-01-30T06:01:20;99277.47;;;-1.42;80.72
80624;BME280;70269;44.768;9.600;2024-01-30T06:03:46;99274.81;;;-1.42;80.39
80624;BME280;70269;44.768;9.600;2024-01-30T06:06:11;99275.00;;;-1.45;80.46
80624;BME280;70269;44.768;9.600;2024-01-30T06:08:37;99267.25;;;-1.48;80.23
80624;BME280;70269;44.768;9.600;2024-01-30T06:11:03;99273.09;;;-1.57;80.64
80624;BME280;70269;44.768;9.600;2024-01-30T06:13:28;99269.78;;;-1.61;80.81
80624;BME280;70269;44.768;9.600;2024-01-30T06:15:57;99268.00;;;-1.60;80.60
80624;BME280;70269;44.768;9.600;2024-01-30T06:18:23;99275.34;;;-1.66;81.13
80624;BME280;70269;44.768;9.600;2024-01-30T06:20:48;99274.31;;;-1.63;81.11
80624;BME280;70269;44.768;9.600;2024-01-30T06:23:14;99275.47;;;-1.67;81.00
80624;BME280;70269;44.768;9.600;2024-01-30T06:25:40;99272.22;;;-1.72;81.54
80624;BME280;70269;44.768;9.600;2024-01-30T06:28:06;99273.94;;;-1.71;81.69
80624;BME280;70269;44.768;9.600;2024-01-30T06:30:31;99275.47;;;-1.53;80.98
80624;BME280;70269;44.768;9.600;2024-01-30T06:32:57;99276.72;;;-1.44;80.47
80624;BME280;70269;44.768;9.600;2024-01-30T06:35:22;99277.47;;;-1.42;80.00
80624;BME280;70269;44.768;9.600;2024-01-30T06:37:48;99285.03;;;-1.50;81.09
80624;BME280;70269;44.768;9.600;2024-01-30T06:40:14;99284.66;;;-1.44;79.97
80624;BME280;70269;44.768;9.600;2024-01-30T06:42:39;99280.69;;;-1.51;80.13
80624;BME280;70269;44.768;9.600;2024-01-30T06:45:05;99283.72;;;-1.43;80.30
80624;BME280;70269;44.768;9.600;2024-01-30T06:47:31;99292.78;;;-1.47;80.05
80624;BME280;70269;44.768;9.600;2024-01-30T06:49:57;99295.06;;;-1.41;79.68
80624;BME280;70269;44.768;9.600;2024-01-30T06:52:23;99291.09;;;-1.34;78.99
80624;BME280;70269;44.768;9.600;2024-01-30T06:54:48;99286.19;;;-1.12;78.61
80624;BME280;70269;44.768;9.600;2024-01-30T06:57:14;99285.97;;;-1.23;78.80
80624;BME280;70269;44.768;9.600;2024-01-30T06:59:40;99292.25;;;-1.24;79.25
80624;BME280;70269;44.768;9.600;2024-01-30T07:02:12;99288.19;;;-1.30;78.80
80624;BME280;70269;44.768;9.600;2024-01-30T07:04:37;99287.50;;;-1.33;79.24
80624;BME280;70269;44.768;9.600;2024-01-30T07:07:04;99293.66;;;-1.33;79.32
80624;BME280;70269;44.768;9.600;2024-01-30T07:09:31;99306.25;;;-1.36;79.42
80624;BME280;70269;44.768;9.600;2024-01-30T07:11:57;99303.72;;;-1.24;79.16
80624;BME280;70269;44.768;9.600;2024-01-30T07:14:24;99305.69;;;-1.13;77.82
80624;BME280;70269;44.768;9.600;2024-01-30T07:16:49;99299.72;;;-1.02;78.12
80624;BME280;70269;44.768;9.600;2024-01-30T07:19:16;99303.97;;;-1.00;78.19
80624;BME280;70269;44.768;9.600;2024-01-30T07:21:42;99302.38;;;-1.02;78.28
80624;BME280;70269;44.768;9.600;2024-01-30T07:24:07;99309.28;;;-1.00;78.13
80624;BME280;70269;44.768;9.600;2024-01-30T07:26:33;99303.31;;;-0.89;77.29
80624;BME280;70269;44.768;9.600;2024-01-30T07:28:59;99304.53;;;-0.80;77.00
80624;BME280;70269;44.768;9.600;2024-01-30T07:31:24;99305.81;;;-0.59;76.36
80624;BME280;70269;44.768;9.600;2024-01-30T07:33:50;99302.38;;;-0.61;76.31
80624;BME280;70269;44.768;9.600;2024-01-30T07:36:15;99313.47;;;-0.55;75.69
80624;BME280;70269;44.768;9.600;2024-01-30T07:38:41;99306.88;;;-0.62;75.87
80624;BME280;70269;44.768;9.600;2024-01-30T07:41:06;99309.78;;;-0.52;75.57
80624;BME280;70269;44.768;9.600;2024-01-30T07:43:32;99313.13;;;-0.36;75.18
80624;BME280;70269;44.768;9.600;2024-01-30T07:45:59;99316.06;;;-0.26;74.60
80624;BME280;70269;44.768;9.600;2024-01-30T07:48:26;99307.31;;;-0.02;73.94
80624;BME280;70269;44.768;9.600;2024-01-30T07:50:51;99320.44;;;0.27;73.47
80624;BME280;70269;44.768;9.600;2024-01-30T07:53:18;99315.50;;;0.48;72.07
80624;BME280;70269;44.768;9.600;2024-01-30T07:55:44;99304.88;;;0.73;70.77
80624;BME280;70269;44.768;9.600;2024-01-30T07:58:12;99313.38;;;0.91;70.43
80624;BME280;70269;44.768;9.600;2024-01-30T08:00:37;99309.09;;;1.01;71.42
80624;BME280;70269;44.768;9.600;2024-01-30T08:03:04;99307.78;;;1.19;70.18
80624;BME280;70269;44.768;9.600;2024-01-30T08:05:29;99308.19;;;1.38;69.86
80624;BME280;70269;44.768;9.600;2024-01-30T08:07:55;99309.22;;;1.48;69.85
80624;BME280;70269;44.768;9.600;2024-01-30T08:10:20;99303.63;;;1.64;69.14
80624;BME280;70269;44.768;9.600;2024-01-30T08:12:46;99306.53;;;1.85;68.05
80624;BME280;70269;44.768;9.600;2024-01-30T08:15:12;99306.13;;;2.02;66.27
80624;BME280;70269;44.768;9.600;2024-01-30T08:17:38;99309.34;;;2.18;67.11
80624;BME280;70269;44.768;9.600;2024-01-30T08:20:05;99303.56;;;2.35;66.75
80624;BME280;70269;44.768;9.600;2024-01-30T08:22:31;99309.19;;;2.43;66.25
80624;BME280;70269;44.768;9.600;2024-01-30T08:24:56;99304.25;;;2.61;65.78
80624;BME280;70269;44.768;9.600;2024-01-30T08:27:22;99306.81;;;2.74;65.09
80624;BME280;70269;44.768;9.600;2024-01-30T08:29:47;99294.72;;;2.92;65.58
80624;BME280;70269;44.768;9.600;2024-01-30T08:32:13;99299.56;;;2.98;64.23
80624;BME280;70269;44.768;9.600;2024-01-30T08:34:39;99306.97;;;3.06;64.67
80624;BME280;70269;44.768;9.600;2024-01-30T08:37:04;99305.66;;;3.11;63.84
80624;BME280;70269;44.768;9.600;2024-01-30T08:39:30;99299.97;;;3.27;63.85
80624;BME280;70269;44.768;9.600;2024-01-30T09:07:10;99307.34;;;4.73;58.83
80624;BME280;70269;44.768;9.600;2024-01-30T09:09:38;99306.50;;;4.94;57.64
80624;BME280;70269;44.768;9.600;2024-01-30T09:12:05;99297.50;;;5.04;58.76
80624;BME280;70269;44.768;9.600;2024-01-30T09:14:33;99294.84;;;5.04;56.43
80624;BME280;70269;44.768;9.600;2024-01-30T09:16:58;99296.56;;;5.15;57.17
80624;BME280;70269;44.768;9.600;2024-01-30T09:19:24;99299.63;;;5.41;56.28
80624;BME280;70269;44.768;9.600;2024-01-30T09:21:50;99298.97;;;5.48;55.03
80624;BME280;70269;44.768;9.600;2024-01-30T09:24:15;99290.94;;;5.58;56.79
80624;BME280;70269;44.768;9.600;2024-01-30T09:26:41;99290.97;;;5.67;55.64
80624;BME280;70269;44.768;9.600;2024-01-30T09:29:07;99293.97;;;5.84;55.92
80624;BME280;70269;44.768;9.600;2024-01-30T09:31:32;99298.94;;;5.88;54.53
80624;BME280;70269;44.768;9.600;2024-01-30T09:33:58;99305.44;;;5.95;52.14
80624;BME280;70269;44.768;9.600;2024-01-30T09:36:24;99303.78;;;6.04;53.17
80624;BME280;70269;44.768;9.600;2024-01-30T09:38:50;99296.41;;;5.96;52.18
80624;BME280;70269;44.768;9.600;2024-01-30T09:41:16;99300.09;;;6.15;53.53
80624;BME280;70269;44.768;9.600;2024-01-30T09:43:47;99304.34;;;6.36;53.49
80624;BME280;70269;44.768;9.600;2024-01-30T09:46:17;99303.91;;;6.70;51.22
80624;BME280;70269;44.768;9.600;2024-01-30T09:48:46;99300.03;;;6.91;50.84
80624;BME280;70269;44.768;9.600;2024-01-30T09:51:14;99296.88;;;7.15;49.44
80624;BME280;70269;44.768;9.600;2024-01-30T09:53:40;99305.31;;;6.64;50.88
80624;BME280;70269;44.768;9.600;2024-01-30T09:56:08;99302.38;;;6.38;48.89
80624;BME280;70269;44.768;9.600;2024-01-30T09:58:33;99305.19;;;6.27;50.39
80624;BME280;70269;44.768;9.600;2024-01-30T10:00:59;99302.50;;;6.27;49.96
80624;BME280;70269;44.768;9.600;2024-01-30T10:03:25;99307.56;;;6.11;49.42
80624;BME280;70269;44.768;9.600;2024-01-30T10:05:52;99306.59;;;6.31;48.61
80624;BME280;70269;44.768;9.600;2024-01-30T10:08:18;99300.13;;;6.34;45.36
80624;BME280;70269;44.768;9.600;2024-01-30T10:10:48;99302.94;;;6.52;48.18
80624;BME280;70269;44.768;9.600;2024-01-30T10:13:15;99307.88;;;6.46;47.58
80624;BME280;70269;44.768;9.600;2024-01-30T10:15:41;99300.38;;;6.69;51.28
80624;BME280;70269;44.768;9.600;2024-01-30T10:18:08;99303.72;;;6.81;47.41
80624;BME280;70269;44.768;9.600;2024-01-30T10:20:36;99305.56;;;6.90;48.50
80624;BME280;70269;44.768;9.600;2024-01-30T10:23:02;99300.56;;;7.05;49.92
80624;BME280;70269;44.768;9.600;2024-01-30T10:25:28;99304.00;;;6.97;51.72
80624;BME280;70269;44.768;9.600;2024-01-30T10:27:53;99290.88;;;6.75;50.89
80624;BME280;70269;44.768;9.600;2024-01-30T10:30:21;99285.53;;;7.12;49.70
80624;BME280;70269;44.768;9.600;2024-01-30T10:32:47;99291.06;;;7.10;50.09
80624;BME280;70269;44.768;9.600;2024-01-30T10:35:13;99285.03;;;7.36;50.25
80624;BME280;70269;44.768;9.600;2024-01-30T10:37:39;99283.56;;;7.51;48.63
80624;BME280;70269;44.768;9.600;2024-01-30T10:40:05;99279.06;;;7.69;49.42
80624;BME280;70269;44.768;9.600;2024-01-30T10:42:36;99275.19;;;7.99;47.10
80624;BME280;70269;44.768;9.600;2024-01-30T10:45:12;99279.44;;;8.01;48.39
80624;BME280;70269;44.768;9.600;2024-01-30T10:47:40;99276.19;;;7.98;47.66
80624;BME280;70269;44.768;9.600;2024-01-30T10:50:08;99262.81;;;8.06;47.66
80624;BME280;70269;44.768;9.600;2024-01-30T10:52:34;99268.97;;;8.34;48.94
80624;BME280;70269;44.768;9.600;2024-01-30T10:55:00;99262.94;;;8.32;49.90
80624;BME280;70269;44.768;9.600;2024-01-30T10:57:27;99263.34;;;8.27;47.75
80624;BME280;70269;44.768;9.600;2024-01-30T10:59:56;99255.72;;;8.23;47.47
80624;BME280;70269;44.768;9.600;2024-01-30T11:02:23;99259.28;;;8.23;48.77
80624;BME280;70269;44.768;9.600;2024-01-30T11:04:50;99257.44;;;8.06;47.39
80624;BME280;70269;44.768;9.600;2024-01-30T11:07:25;99246.19;;;8.10;47.10
80624;BME280;70269;44.768;9.600;2024-01-30T11:09:53;99248.03;;;7.92;47.67
80624;BME280;70269;44.768;9.600;2024-01-30T11:12:23;99245.28;;;8.20;47.81
80624;BME280;70269;44.768;9.600;2024-01-30T11:14:49;99235.38;;;8.20;49.06
80624;BME280;70269;44.768;9.600;2024-01-30T11:17:15;99243.22;;;8.13;47.71
80624;BME280;70269;44.768;9.600;2024-01-30T11:19:41;99234.06;;;8.06;48.00
80624;BME280;70269;44.768;9.600;2024-01-30T11:22:07;99240.34;;;7.97;48.87
80624;BME280;70269;44.768;9.600;2024-01-30T11:24:40;99232.28;;;7.97;49.42
80624;BME280;70269;44.768;9.600;2024-01-30T11:27:09;99227.53;;;8.27;49.58
80624;BME280;70269;44.768;9.600;2024-01-30T11:29:37;99225.44;;;8.21;47.93
80624;BME280;70269;44.768;9.600;2024-01-30T11:32:05;99226.44;;;8.37;49.43
80624;BME280;70269;44.768;9.600;2024-01-30T11:34:32;99221.75;;;8.65;50.51
80624;BME280;70269;44.768;9.600;2024-01-30T11:37:04;99221.53;;;8.33;48.79
80624;BME280;70269;44.768;9.600;2024-01-30T11:39:35;99219.38;;;8.19;48.86
80624;BME280;70269;44.768;9.600;2024-01-30T11:42:03;99207.44;;;8.39;50.56
80624;BME280;70269;44.768;9.600;2024-01-30T11:44:30;99214.47;;;8.32;50.40
80624;BME280;70269;44.768;9.600;2024-01-30T11:46:56;99207.22;;;8.15;49.45
80624;BME280;70269;44.768;9.600;2024-01-30T11:49:23;99204.91;;;8.20;49.36
80624;BME280;70269;44.768;9.600;2024-01-30T11:51:48;99196.34;;;8.24;49.77
80624;BME280;70269;44.768;9.600;2024-01-30T11:54:15;99195.00;;;8.20;50.32
80624;BME280;70269;44.768;9.600;2024-01-30T11:56:42;99187.91;;;8.19;49.66
80624;BME280;70269;44.768;9.600;2024-01-30T11:59:07;99186.50;;;8.15;49.66
80624;BME280;70269;44.768;9.600;2024-01-30T12:01:33;99180.56;;;8.29;50.13
80624;BME280;70269;44.768;9.600;2024-01-30T12:03:59;99170.56;;;8.39;50.31
80624;BME280;70269;44.768;9.600;2024-01-30T12:06:25;99167.38;;;8.36;50.49
80624;BME280;70269;44.768;9.600;2024-01-30T12:09:01;99162.97;;;8.61;49.56
80624;BME280;70269;44.768;9.600;2024-01-30T12:11:29;99160.78;;;8.56;50.06
80624;BME280;70269;44.768;9.600;2024-01-30T12:13:55;99153.53;;;8.90;51.17
80624;BME280;70269;44.768;9.600;2024-01-30T12:16:21;99151.72;;;8.65;48.37
80624;BME280;70269;44.768;9.600;2024-01-30T12:18:48;99142.00;;;8.46;49.13
80624;BME280;70269;44.768;9.600;2024-01-30T12:21:16;99146.56;;;8.46;48.36
80624;BME280;70269;44.768;9.600;2024-01-30T12:23:42;99149.00;;;8.57;49.40
80624;BME280;70269;44.768;9.600;2024-01-30T12:26:08;99139.44;;;8.63;49.67
80624;BME280;70269;44.768;9.600;2024-01-30T12:28:34;99139.25;;;8.64;48.39
80624;BME280;70269;44.768;9.600;2024-01-30T12:31:05;99129.13;;;8.58;48.79
80624;BME280;70269;44.768;9.600;2024-01-30T12:33:31;99127.59;;;8.56;49.17
80624;BME280;70269;44.768;9.600;2024-01-30T12:35:57;99124.78;;;8.65;49.49
80624;BME280;70269;44.768;9.600;2024-01-30T12:38:27;99121.44;;;8.71;50.85
80624;BME280;70269;44.768;9.600;2024-01-30T12:40:55;99119.84;;;8.52;49.64
80624;BME280;70269;44.768;9.600;2024-01-30T12:43:22;99118.91;;;8.36;49.11
80624;BME280;70269;44.768;9.600;2024-01-30T12:45:49;99115.13;;;8.29;49.90
80624;BME280;70269;44.768;9.600;2024-01-30T12:48:15;99109.00;;;8.19;50.05
80624;BME280;70269;44.768;9.600;2024-01-30T12:50:41;99105.53;;;8.26;49.71
80624;BME280;70269;44.768;9.600;2024-01-30T12:53:07;99107.41;;;8.08;49.31
80624;BME280;70269;44.768;9.600;2024-01-30T12:55:34;99113.09;;;8.05;49.93
80624;BME280;70269;44.768;9.600;2024-01-30T12:58:00;99100.56;;;8.13;49.59
80624;BME280;70269;44.768;9.600;2024-01-30T13:00:25;99105.69;;;8.25;49.37
80624;BME280;70269;44.768;9.600;2024-01-30T13:02:51;99103.84;;;8.25;49.60
80624;BME280;70269;44.768;9.600;2024-01-30T13:05:17;99093.06;;;8.25;49.26
80624;BME280;70269;44.768;9.600;2024-01-30T13:07:42;99093.06;;;8.25;49.48
80624;BME280;70269;44.768;9.600;2024-01-30T13:10:08;99088.53;;;8.26;49.59
80624;BME280;70269;44.768;9.600;2024-01-30T13:12:34;99095.53;;;8.19;49.12
80624;BME280;70269;44.768;9.600;2024-01-30T13:15:01;99083.94;;;8.18;49.81
80624;BME280;70269;44.768;9.600;2024-01-30T13:17:27;99080.50;;;8.08;49.11
80624;BME280;70269;44.768;9.600;2024-01-30T13:19:53;99080.44;;;8.00;49.28
80624;BME280;70269;44.768;9.600;2024-01-30T13:22:19;99085.72;;;8.09;49.29
80624;BME280;70269;44.768;9.600;2024-01-30T13:24:47;99089.22;;;8.02;49.12